Sault Ste Marie, Michigan
Current Conditions -  °F | °C
As of 7:55 AM on Tuesday 21 Oct 2014 (Local Time) from KANJ Reporting Station
Clear Clear  
Wind Chill: 30°   Ceiling: Unl
Heat Index: 37°   Visibility: 10mi
Dew Point: 30°   Wind: 10mph
Humidity: 76%   Direction: 20°NNE
Pressure: 30.13"   Gusts: NA
Location:  46.48°N, 84.37°W
Report Text: KANJ 211155Z AUTO 02009KT 10SM CLR 03/M01 A3013 RMK AO2 SLP207 70005 T00281011 10061 20028 53027
Loading
Personal Weather Stations






























Interactive Weather Map
Tropical Storm Tracking
New forecast layout! Learn more

10-Day Weather Forecast

Advertisements
Track Severe Weather on mobile